createdAt,value
2023-04-21T00:02:28.749Z,17.30
2023-04-21T00:04:59.318Z,19.70
2023-04-21T00:07:30.729Z,16.90
2023-04-21T00:10:01.190Z,18.00
2023-04-21T00:12:31.720Z,20.30
2023-04-21T00:15:02.312Z,18.10
2023-04-21T00:17:32.883Z,19.70
2023-04-21T00:20:04.739Z,17.90
2023-04-21T00:22:35.259Z,18.60
2023-04-21T00:25:06.483Z,16.00
2023-04-21T00:27:37.080Z,15.50
2023-04-21T00:30:10.571Z,18.90
2023-04-21T00:32:41.155Z,17.40
2023-04-21T00:35:12.592Z,20.80
2023-04-21T00:37:43.078Z,20.20
2023-04-21T00:40:15.517Z,20.20
2023-04-21T00:42:46.089Z,19.20
2023-04-21T00:45:16.607Z,19.80
2023-04-21T00:47:47.186Z,19.50
2023-04-21T00:50:17.828Z,17.50
2023-04-21T00:52:49.098Z,19.00
2023-04-21T00:55:19.614Z,19.20
2023-04-21T00:57:52.123Z,19.50
2023-04-21T01:00:22.824Z,19.60
2023-04-21T01:02:53.442Z,17.90
2023-04-21T01:05:24.716Z,19.90
2023-04-21T01:07:55.525Z,18.20
2023-04-21T01:12:56.615Z,20.80
2023-04-21T01:15:31.004Z,19.50
2023-04-21T01:18:02.885Z,22.20
2023-04-21T01:20:33.664Z,16.70
2023-04-21T01:23:04.432Z,16.90
2023-04-21T01:25:34.970Z,17.00
2023-04-21T01:28:07.556Z,18.90
2023-04-21T01:30:38.063Z,16.70
2023-04-21T01:33:08.694Z,18.60
2023-04-21T01:35:39.200Z,18.40
2023-04-21T01:38:09.743Z,20.00
2023-04-21T01:40:41.923Z,21.20
2023-04-21T01:43:12.525Z,22.50
2023-04-21T01:45:44.629Z,19.00
2023-04-21T01:48:15.258Z,18.30
2023-04-21T01:50:45.905Z,23.70
2023-04-21T01:53:16.414Z,19.40
2023-04-21T01:55:46.898Z,18.50
2023-04-21T01:58:17.428Z,18.90
2023-04-21T02:00:47.957Z,19.90
2023-04-21T02:03:18.604Z,17.40
2023-04-21T02:05:51.243Z,20.90
2023-04-21T02:10:51.572Z,20.40
2023-04-21T02:13:22.145Z,19.70
2023-04-21T02:15:59.769Z,18.60
2023-04-21T02:18:41.513Z,20.00
2023-04-21T02:21:12.128Z,20.30
2023-04-21T02:23:42.902Z,18.80
2023-04-21T02:26:13.408Z,18.60
2023-04-21T02:28:44.137Z,17.60
2023-04-21T02:31:14.823Z,19.00
2023-04-21T02:33:45.370Z,20.20
2023-04-21T02:36:15.859Z,20.80
2023-04-21T02:38:46.408Z,20.90
2023-04-21T02:41:16.871Z,18.60
2023-04-21T02:43:47.727Z,18.20
2023-04-21T02:46:18.287Z,21.40
2023-04-21T02:48:48.774Z,19.70
2023-04-21T02:51:19.360Z,21.60
2023-04-21T02:53:49.886Z,23.10
2023-04-21T02:56:20.382Z,19.80
2023-04-21T02:58:50.830Z,23.60
2023-04-21T03:01:21.393Z,21.90
2023-04-21T03:03:52.113Z,20.80
2023-04-21T03:06:22.681Z,18.70
2023-04-21T03:08:53.141Z,19.00
2023-04-21T03:11:23.609Z,19.40
2023-04-21T03:13:57.067Z,21.60
2023-04-21T03:16:28.174Z,20.80
2023-04-21T03:18:58.798Z,23.80
2023-04-21T03:21:29.251Z,22.70
2023-04-21T03:23:59.792Z,21.90
2023-04-21T03:26:30.249Z,22.00
2023-04-21T03:29:01.758Z,25.00
2023-04-21T03:31:32.716Z,20.90
2023-04-21T03:34:03.252Z,24.10
2023-04-21T03:36:33.743Z,25.60
2023-04-21T03:39:16.830Z,61.30
2023-04-21T03:41:50.249Z,27.80
2023-04-21T03:44:20.770Z,27.10
2023-04-21T03:46:53.351Z,32.60
2023-04-21T03:49:25.623Z,23.90
2023-04-21T03:51:56.097Z,25.70
2023-04-21T03:54:26.615Z,24.20
2023-04-21T03:56:57.062Z,22.20
2023-04-21T03:59:27.571Z,23.80
2023-04-21T04:01:58.060Z,26.70
2023-04-21T04:04:28.881Z,25.80
2023-04-21T04:07:00.121Z,23.30
2023-04-21T04:09:30.701Z,21.20
2023-04-21T04:12:02.887Z,23.70
2023-04-21T04:14:33.380Z,21.20
2023-04-21T04:17:03.911Z,21.60
2023-04-21T04:19:34.878Z,23.00
2023-04-21T04:22:05.326Z,23.80
2023-04-21T04:24:36.949Z,25.00
2023-04-21T04:27:07.497Z,21.30
2023-04-21T04:29:37.976Z,19.50
2023-04-21T04:32:09.575Z,25.80
2023-04-21T04:34:40.344Z,70.90
2023-04-21T04:37:11.440Z,69.10
2023-04-21T04:39:41.969Z,43.70
2023-04-21T04:42:12.691Z,28.80
2023-04-21T04:44:43.183Z,25.70
2023-04-21T04:47:13.707Z,30.20
2023-04-21T04:49:44.133Z,27.10
2023-04-21T04:52:14.551Z,27.90
2023-04-21T04:54:45.067Z,29.20
2023-04-21T04:57:15.788Z,32.50
2023-04-21T04:59:46.605Z,27.90
2023-04-21T05:02:17.384Z,28.80
2023-04-21T05:04:48.081Z,24.90
2023-04-21T05:07:18.718Z,38.00
2023-04-21T05:09:49.197Z,28.50
2023-04-21T05:12:19.652Z,26.60
2023-04-21T05:14:50.150Z,32.70
2023-04-21T05:17:21.094Z,26.30
2023-04-21T05:19:51.657Z,22.70
2023-04-21T05:22:22.116Z,21.00
2023-04-21T05:24:52.623Z,18.30
2023-04-21T05:27:23.124Z,20.50
2023-04-21T05:29:54.757Z,24.00
2023-04-21T05:32:25.622Z,21.50
2023-04-21T05:34:56.127Z,23.20
2023-04-21T05:37:26.630Z,19.30
2023-04-21T05:39:57.132Z,21.90
2023-04-21T05:42:27.632Z,18.60
2023-04-21T05:44:58.256Z,20.20
2023-04-21T05:47:28.926Z,20.90
2023-04-21T05:49:59.578Z,23.90
2023-04-21T05:52:30.050Z,19.80
2023-04-21T05:55:00.801Z,21.90
2023-04-21T05:57:31.640Z,18.60
2023-04-21T06:00:02.271Z,14.90
2023-04-21T06:02:36.104Z,19.10
2023-04-21T06:05:07.487Z,18.00
2023-04-21T06:07:38.558Z,24.70
2023-04-21T06:10:11.676Z,18.80
2023-04-21T06:12:42.242Z,22.20
2023-04-21T06:15:13.213Z,21.80
2023-04-21T06:17:43.804Z,18.50
2023-04-21T06:20:15.300Z,20.80
2023-04-21T06:22:45.769Z,21.00
2023-04-21T06:25:16.240Z,17.40
2023-04-21T06:27:46.752Z,19.40
2023-04-21T06:30:17.792Z,20.10
2023-04-21T06:32:48.824Z,19.80
2023-04-21T06:35:20.580Z,19.90
2023-04-21T06:37:52.119Z,18.10
2023-04-21T06:40:22.589Z,19.40
2023-04-21T06:42:53.070Z,18.00
2023-04-21T06:45:23.966Z,20.50
2023-04-21T06:47:54.476Z,19.90
2023-04-21T06:50:24.976Z,21.20
2023-04-21T06:52:55.634Z,17.60
2023-04-21T06:55:26.192Z,18.60
2023-04-21T06:57:56.664Z,18.60
2023-04-21T07:00:27.251Z,18.70
2023-04-21T07:02:57.839Z,19.30
2023-04-21T07:05:28.502Z,16.30
2023-04-21T07:08:00.419Z,17.50
2023-04-21T07:13:00.519Z,17.70
2023-04-21T07:15:31.005Z,17.80
2023-04-21T07:18:01.522Z,17.00
2023-04-21T07:20:32.012Z,22.10
2023-04-21T07:23:02.618Z,17.70
2023-04-21T07:25:33.070Z,19.00
2023-04-21T07:28:03.627Z,18.90
2023-04-21T07:30:34.106Z,18.40
2023-04-21T07:33:04.908Z,19.60
2023-04-21T07:35:35.549Z,20.30
2023-04-21T07:38:05.971Z,20.00
2023-04-21T07:40:36.478Z,18.40
2023-04-21T07:43:06.943Z,19.70
2023-04-21T07:45:37.422Z,20.50
2023-04-21T07:48:08.450Z,19.40
2023-04-21T07:50:39.079Z,18.70
2023-04-21T07:53:09.979Z,20.30
2023-04-21T07:55:40.740Z,19.50
2023-04-21T07:58:11.294Z,23.30
2023-04-21T08:00:41.831Z,19.00
2023-04-21T08:03:12.417Z,22.00
2023-04-21T08:05:43.231Z,17.60
2023-04-21T08:08:13.859Z,21.50
2023-04-21T08:10:44.481Z,23.90
2023-04-21T08:13:15.140Z,19.00
2023-04-21T08:15:45.621Z,24.30
2023-04-21T08:18:22.169Z,24.00
2023-04-21T08:20:53.395Z,19.70
2023-04-21T08:23:23.957Z,20.30
2023-04-21T08:25:54.660Z,17.10
2023-04-21T08:28:25.137Z,19.50
2023-04-21T08:30:55.689Z,17.90
2023-04-21T08:33:26.188Z,19.40
2023-04-21T08:36:04.272Z,21.70
2023-04-21T08:38:36.407Z,17.90
2023-04-21T08:41:08.720Z,20.20
2023-04-21T08:43:39.228Z,17.60
2023-04-21T08:46:11.118Z,24.20
2023-04-21T08:51:12.181Z,18.80
2023-04-21T08:53:43.585Z,15.90
2023-04-21T08:56:14.069Z,17.80
2023-04-21T08:58:44.543Z,17.30
2023-04-21T09:01:15.148Z,15.60
2023-04-21T09:03:45.994Z,15.40
2023-04-21T09:06:17.178Z,22.00
2023-04-21T09:08:56.711Z,20.70
2023-04-21T09:11:27.321Z,16.70
2023-04-21T09:13:59.642Z,15.60
2023-04-21T09:16:35.393Z,15.80
2023-04-21T09:19:14.756Z,15.10
2023-04-21T09:21:46.341Z,12.70
2023-04-21T09:24:17.241Z,13.10
2023-04-21T09:26:50.806Z,12.40
2023-04-21T09:29:23.124Z,15.00
2023-04-21T09:31:53.943Z,14.20
2023-04-21T09:34:26.866Z,12.50
2023-04-21T09:37:04.546Z,11.80
2023-04-21T09:39:46.356Z,11.70
2023-04-21T09:42:32.121Z,11.00
2023-04-21T09:45:23.716Z,14.80
2023-04-21T09:47:56.822Z,12.00
2023-04-21T09:51:07.099Z,11.40
2023-04-21T09:53:22.929Z,11.40
2023-04-21T09:55:56.566Z,13.90
2023-04-21T09:58:35.206Z,10.60
2023-04-21T10:01:06.189Z,10.80
2023-04-21T10:03:39.800Z,11.60
2023-04-21T10:06:11.286Z,12.80
2023-04-21T10:08:43.036Z,10.60
2023-04-21T10:11:14.488Z,10.30
2023-04-21T10:13:45.734Z,10.10
2023-04-21T10:16:21.608Z,11.40
2023-04-21T10:18:52.809Z,11.30
2023-04-21T10:21:24.518Z,10.60
2023-04-21T10:23:55.153Z,14.10
2023-04-21T10:26:27.383Z,12.30
2023-04-21T10:29:00.433Z,10.10
2023-04-21T10:31:36.093Z,13.60
2023-04-21T10:34:29.682Z,10.20
2023-04-21T10:37:19.970Z,11.40
2023-04-21T10:39:57.099Z,11.50
2023-04-21T10:42:35.414Z,9.60
2023-04-21T10:45:11.008Z,8.90
2023-04-21T10:47:45.432Z,10.40
2023-04-21T10:50:18.587Z,9.70
2023-04-21T10:52:53.870Z,9.90
2023-04-21T10:55:27.094Z,10.80
2023-04-21T10:57:59.121Z,12.20
2023-04-21T11:00:29.763Z,10.10
2023-04-21T11:03:02.865Z,10.00
2023-04-21T11:05:38.583Z,10.30
2023-04-21T11:08:16.003Z,8.80
2023-04-21T11:10:53.034Z,8.80
2023-04-21T11:13:29.331Z,8.50
2023-04-21T11:16:06.459Z,7.80
2023-04-21T11:18:50.520Z,9.60
2023-04-21T11:21:22.613Z,9.20
2023-04-21T11:23:54.791Z,8.10
2023-04-21T11:26:37.824Z,8.50
2023-04-21T11:29:09.829Z,8.40
2023-04-21T11:31:42.293Z,7.10
2023-04-21T11:34:12.992Z,8.70
2023-04-21T11:36:45.057Z,8.70
2023-04-21T11:39:20.216Z,10.30
2023-04-21T11:41:53.208Z,11.00
2023-04-21T11:44:38.387Z,8.60
2023-04-21T11:47:20.488Z,9.00
2023-04-21T11:49:54.594Z,8.50
2023-04-21T11:52:27.083Z,7.10
2023-04-21T11:55:02.437Z,7.90
2023-04-21T11:57:34.536Z,6.40
2023-04-21T12:00:07.876Z,8.10
2023-04-21T12:02:38.801Z,12.10
2023-04-21T12:05:11.750Z,8.10
2023-04-21T12:07:44.919Z,8.90
2023-04-21T12:10:18.430Z,6.60
2023-04-21T12:12:49.165Z,7.60
2023-04-21T12:15:23.272Z,8.70
2023-04-21T12:17:55.548Z,9.30
2023-04-21T12:20:29.736Z,7.10
2023-04-21T12:23:01.140Z,8.40
2023-04-21T12:25:31.939Z,8.00
2023-04-21T12:28:02.378Z,9.60
2023-04-21T12:30:35.607Z,8.60
2023-04-21T12:33:09.262Z,8.90
2023-04-21T12:38:09.599Z,9.30
2023-04-21T12:40:40.081Z,7.50
2023-04-21T12:43:10.561Z,8.80
2023-04-21T12:45:41.413Z,8.20
2023-04-21T12:48:12.276Z,8.40
2023-04-21T12:50:42.906Z,8.30
2023-04-21T12:53:13.447Z,8.80
2023-04-21T12:55:53.210Z,7.40
2023-04-21T12:58:34.388Z,9.70
2023-04-21T13:01:04.911Z,6.40
2023-04-21T13:03:35.554Z,11.00
2023-04-21T13:06:06.650Z,8.40
2023-04-21T13:08:37.179Z,7.00
2023-04-21T13:11:07.858Z,7.30
2023-04-21T13:13:39.038Z,8.70
2023-04-21T13:16:09.560Z,9.00
2023-04-21T13:18:40.061Z,8.40
2023-04-21T13:21:10.529Z,8.50
2023-04-21T13:23:41.159Z,7.40
2023-04-21T13:26:11.951Z,8.60
2023-04-21T13:28:42.621Z,8.10
2023-04-21T13:31:14.506Z,8.30
2023-04-21T13:33:45.205Z,8.20
2023-04-21T13:36:15.709Z,9.20
2023-04-21T13:38:48.063Z,9.20
2023-04-21T13:41:18.651Z,9.30
2023-04-21T13:43:49.294Z,8.00
2023-04-21T13:46:20.667Z,8.30
2023-04-21T13:48:51.742Z,7.60
2023-04-21T13:51:22.808Z,8.30
2023-04-21T13:53:53.238Z,6.10
2023-04-21T13:56:24.137Z,8.00
2023-04-21T13:58:55.176Z,8.90
2023-04-21T14:01:25.837Z,6.80
2023-04-21T14:03:57.536Z,10.30
2023-04-21T14:06:28.404Z,7.50
2023-04-21T14:08:58.899Z,6.70
2023-04-21T14:11:29.450Z,7.80
2023-04-21T14:16:35.658Z,6.40
2023-04-21T14:19:06.627Z,7.40
2023-04-21T14:21:37.338Z,7.30
2023-04-21T14:24:07.998Z,6.90
2023-04-21T14:26:38.592Z,6.60
2023-04-21T14:29:09.133Z,7.40
2023-04-21T14:31:39.687Z,6.60
2023-04-21T14:34:10.337Z,8.40
2023-04-21T14:36:41.671Z,6.60
2023-04-21T14:39:12.211Z,7.80
2023-04-21T14:41:45.596Z,7.50
2023-04-21T14:44:16.301Z,7.50
2023-04-21T14:46:56.907Z,7.30
2023-04-21T14:49:32.088Z,6.60
2023-04-21T14:52:03.888Z,6.40
2023-04-21T14:54:34.519Z,7.70
2023-04-21T14:57:17.452Z,6.70
2023-04-21T14:59:50.670Z,6.70
2023-04-21T15:02:22.157Z,6.70
2023-04-21T15:04:53.039Z,7.90
2023-04-21T15:07:24.808Z,7.40
2023-04-21T15:09:55.764Z,8.50
2023-04-21T15:12:26.577Z,7.00
2023-04-21T15:18:59.532Z,8.30
2023-04-21T15:21:32.070Z,7.50
2023-04-21T15:24:03.077Z,8.10
2023-04-21T15:30:47.586Z,7.20
2023-04-21T15:33:18.369Z,9.00
2023-04-21T15:35:48.865Z,6.60
2023-04-21T15:38:21.191Z,6.90
2023-04-21T15:41:00.798Z,8.80
2023-04-21T15:43:31.926Z,7.10
2023-04-21T15:46:02.423Z,8.40
2023-04-21T15:48:33.120Z,9.30
2023-04-21T15:51:04.837Z,7.70
2023-04-21T15:56:05.513Z,9.10
2023-04-21T15:58:35.993Z,11.30
2023-04-21T16:01:07.120Z,9.20
2023-04-21T16:03:38.092Z,9.00
2023-04-21T16:10:24.608Z,9.10
2023-04-21T16:12:55.155Z,7.30
2023-04-21T16:15:26.643Z,8.60
2023-04-21T16:17:57.598Z,8.30
2023-04-21T16:20:29.079Z,7.60
2023-04-21T16:22:59.639Z,7.90
2023-04-21T16:25:30.271Z,7.00
2023-04-21T16:28:00.829Z,8.90
2023-04-21T16:30:31.316Z,9.30
2023-04-21T16:33:59.603Z,8.10
2023-04-21T16:36:31.456Z,11.30
2023-04-21T16:41:31.429Z,8.40
2023-04-21T16:44:58.936Z,9.10
2023-04-21T16:52:00.321Z,9.30
2023-04-21T16:54:31.249Z,11.70
2023-04-21T16:57:02.155Z,9.80
2023-04-21T16:59:33.182Z,9.30
2023-04-21T17:02:04.065Z,9.40
2023-04-21T17:04:34.859Z,7.40
2023-04-21T17:07:05.376Z,11.10
2023-04-21T17:09:35.982Z,10.00
2023-04-21T17:12:06.708Z,8.20
2023-04-21T17:14:37.780Z,9.90
2023-04-21T17:17:08.562Z,7.90
2023-04-21T17:19:40.350Z,7.50
2023-04-21T17:24:51.732Z,8.30
2023-04-21T17:27:23.675Z,10.40
2023-04-21T17:29:54.509Z,8.60
2023-04-21T17:32:25.185Z,9.70
2023-04-21T17:34:56.326Z,10.50
2023-04-21T17:37:26.870Z,7.90
2023-04-21T17:39:59.188Z,10.60
2023-04-21T17:42:31.758Z,8.90
2023-04-21T17:45:02.334Z,10.00
2023-04-21T17:47:33.515Z,8.10
2023-04-21T17:50:04.346Z,9.60
2023-04-21T17:52:34.844Z,9.90
2023-04-21T17:55:05.736Z,9.50
2023-04-21T17:57:36.717Z,7.70
2023-04-21T18:00:11.506Z,8.60
2023-04-21T18:02:42.221Z,10.00
2023-04-21T18:05:13.711Z,12.70
2023-04-21T18:07:44.297Z,8.40
2023-04-21T18:10:15.543Z,10.20
2023-04-21T18:12:46.066Z,8.10
2023-04-21T18:15:16.580Z,8.10
2023-04-21T18:17:47.143Z,9.30
2023-04-21T18:20:17.737Z,10.60
2023-04-21T18:22:49.036Z,10.60
2023-04-21T18:25:30.591Z,7.80
2023-04-21T18:28:05.028Z,11.10
2023-04-21T18:30:35.648Z,9.50
2023-04-21T18:33:06.455Z,13.10
2023-04-21T18:35:37.097Z,10.70
2023-04-21T18:38:10.581Z,12.30
2023-04-21T18:40:41.526Z,10.40
2023-04-21T18:43:12.213Z,10.10
2023-04-21T18:45:42.695Z,9.60
2023-04-21T18:48:13.172Z,12.70
2023-04-21T18:50:43.746Z,10.20
2023-04-21T18:53:14.199Z,9.00
2023-04-21T18:55:45.334Z,11.30
2023-04-21T18:58:16.796Z,10.20
2023-04-21T19:00:47.573Z,10.60
2023-04-21T19:03:18.144Z,10.00
2023-04-21T19:05:48.731Z,13.10
2023-04-21T19:08:27.004Z,10.70
2023-04-21T19:11:10.067Z,8.80
2023-04-21T19:13:40.554Z,9.30
2023-04-21T19:16:12.622Z,11.60
2023-04-21T19:18:43.210Z,11.10
2023-04-21T19:21:13.805Z,11.80
2023-04-21T19:23:44.359Z,9.60
2023-04-21T19:26:15.156Z,12.60
2023-04-21T19:28:45.645Z,13.70
2023-04-21T19:31:19.216Z,12.00
2023-04-21T19:33:50.536Z,11.20
2023-04-21T19:36:21.668Z,10.20
2023-04-21T19:38:52.123Z,12.40
2023-04-21T19:41:22.823Z,11.20
2023-04-21T19:43:53.378Z,11.30
2023-04-21T19:46:24.762Z,11.30
2023-04-21T19:51:24.774Z,11.90
2023-04-21T19:54:10.149Z,11.60
2023-04-21T19:56:41.680Z,11.00
2023-04-21T19:59:12.201Z,8.70
2023-04-21T20:01:42.725Z,10.80
2023-04-21T20:04:13.555Z,10.40
2023-04-21T20:06:44.422Z,9.60
2023-04-21T20:09:14.883Z,8.50
2023-04-21T20:11:45.344Z,10.70
2023-04-21T20:14:17.029Z,9.80
2023-04-21T20:16:47.489Z,13.30
2023-04-21T20:19:18.242Z,10.50
2023-04-21T20:21:49.856Z,11.30
2023-04-21T20:24:20.363Z,13.90
2023-04-21T20:26:50.886Z,10.20
2023-04-21T20:29:21.545Z,11.20
2023-04-21T20:31:52.145Z,8.70
2023-04-21T20:34:22.873Z,11.30
2023-04-21T20:36:59.577Z,9.70
2023-04-21T20:39:30.247Z,10.90
2023-04-21T20:42:11.904Z,10.20
2023-04-21T20:44:43.443Z,12.40
2023-04-21T20:47:14.354Z,10.90
2023-04-21T20:49:45.101Z,12.80
2023-04-21T20:52:16.044Z,12.50
2023-04-21T20:54:46.558Z,10.40
2023-04-21T20:57:17.133Z,12.80
2023-04-21T20:59:47.657Z,11.80
2023-04-21T21:02:18.437Z,11.80
2023-04-21T21:04:49.015Z,11.80
2023-04-21T21:07:19.553Z,11.30
2023-04-21T21:09:50.051Z,11.70
2023-04-21T21:12:21.196Z,12.80
2023-04-21T21:14:51.652Z,14.10
2023-04-21T21:17:22.305Z,10.60
2023-04-21T21:19:53.001Z,11.50
2023-04-21T21:22:23.505Z,11.60
2023-04-21T21:24:53.990Z,12.50
2023-04-21T21:27:24.522Z,12.60
2023-04-21T21:29:55.004Z,18.80
2023-04-21T21:32:25.571Z,12.70
2023-04-21T21:34:56.085Z,12.00
2023-04-21T21:37:26.651Z,12.10
2023-04-21T21:39:57.199Z,12.80
2023-04-21T21:42:27.719Z,13.30
2023-04-21T21:44:58.263Z,16.50
2023-04-21T21:47:28.945Z,13.60
2023-04-21T21:50:00.018Z,12.10
2023-04-21T21:52:30.567Z,13.60
2023-04-21T21:55:01.028Z,14.00
2023-04-21T21:57:31.610Z,11.70
2023-04-21T22:00:02.271Z,11.50
2023-04-21T22:02:36.344Z,14.60
2023-04-21T22:05:08.984Z,11.50
2023-04-21T22:07:42.970Z,11.40
2023-04-21T22:10:14.043Z,11.50
2023-04-21T22:12:44.516Z,14.10
2023-04-21T22:15:15.427Z,11.50
2023-04-21T22:17:46.017Z,11.20
2023-04-21T22:20:17.913Z,12.90
2023-04-21T22:22:48.465Z,14.00
2023-04-21T22:25:19.087Z,17.80
2023-04-21T22:27:49.582Z,16.20
2023-04-21T22:30:20.331Z,12.30
2023-04-21T22:32:51.049Z,14.10
2023-04-21T22:35:21.745Z,12.40
2023-04-21T22:37:52.232Z,13.30
2023-04-21T22:40:22.853Z,11.40
2023-04-21T22:42:53.421Z,11.70
2023-04-21T22:45:23.917Z,12.60
2023-04-21T22:47:55.887Z,11.30
2023-04-21T22:50:26.642Z,15.50
2023-04-21T22:52:57.484Z,13.30
2023-04-21T22:55:28.849Z,11.10
2023-04-21T22:57:59.408Z,13.20
2023-04-21T23:00:30.029Z,14.30
2023-04-21T23:03:00.814Z,11.00
2023-04-21T23:05:31.517Z,13.30
2023-04-21T23:08:02.055Z,12.90
2023-04-21T23:10:32.697Z,13.80
2023-04-21T23:13:03.220Z,13.70
2023-04-21T23:15:33.694Z,13.90
2023-04-21T23:18:04.241Z,13.10
2023-04-21T23:20:34.805Z,13.20
2023-04-21T23:23:05.313Z,14.90
2023-04-21T23:25:36.310Z,12.60
2023-04-21T23:28:06.798Z,13.60
2023-04-21T23:30:37.570Z,13.40
2023-04-21T23:33:08.294Z,12.80
2023-04-21T23:35:38.930Z,13.90
2023-04-21T23:38:09.470Z,11.70
2023-04-21T23:40:39.983Z,12.10
2023-04-21T23:43:10.651Z,12.00
2023-04-21T23:45:41.338Z,14.50
2023-04-21T23:48:11.859Z,14.40
2023-04-21T23:50:42.433Z,12.40
2023-04-21T23:53:13.390Z,13.40
2023-04-21T23:55:44.302Z,12.00
2023-04-21T23:58:14.862Z,11.90
